createdAt,value
2022-11-16T00:01:21.112Z,9.95
2022-11-16T00:03:50.026Z,9.50
2022-11-16T00:06:17.375Z,9.48
2022-11-16T00:09:07.001Z,9.25
2022-11-16T00:11:34.198Z,9.57
2022-11-16T00:14:01.041Z,9.35
2022-11-16T00:16:28.006Z,9.60
2022-11-16T00:21:30.565Z,9.05
2022-11-16T00:23:57.946Z,9.30
2022-11-16T00:26:25.014Z,9.23
2022-11-16T00:28:55.591Z,9.82
2022-11-16T00:31:22.836Z,8.95
2022-11-16T00:33:50.399Z,9.05
2022-11-16T00:36:17.609Z,9.00
2022-11-16T00:38:44.299Z,9.13
2022-11-16T00:41:11.076Z,9.02
2022-11-16T00:43:37.889Z,8.35
2022-11-16T00:46:05.368Z,9.00
2022-11-16T00:48:32.481Z,8.55
2022-11-16T00:50:59.472Z,8.98
2022-11-16T00:53:26.196Z,9.25
2022-11-16T00:55:52.921Z,8.35
2022-11-16T00:58:19.615Z,8.45
2022-11-16T01:00:46.358Z,8.25
2022-11-16T01:03:13.144Z,8.77
2022-11-16T01:05:40.210Z,8.65
2022-11-16T01:08:07.194Z,8.32
2022-11-16T01:10:34.581Z,9.75
2022-11-16T01:13:01.300Z,8.30
2022-11-16T01:15:28.298Z,8.65
2022-11-16T01:17:56.547Z,7.75
2022-11-16T01:20:28.034Z,8.00
2022-11-16T01:22:55.533Z,8.43
2022-11-16T01:25:22.328Z,8.65
2022-11-16T01:30:16.821Z,8.52
2022-11-16T01:32:43.769Z,8.80
2022-11-16T01:37:41.167Z,8.35
2022-11-16T01:40:08.418Z,8.73
2022-11-16T01:42:35.186Z,8.77
2022-11-16T01:45:07.165Z,9.05
2022-11-16T01:47:34.266Z,8.55
2022-11-16T01:50:13.340Z,9.05
2022-11-16T01:52:51.085Z,8.82
2022-11-16T01:55:17.947Z,8.48
2022-11-16T01:57:47.053Z,8.48
2022-11-16T02:00:14.730Z,8.52
2022-11-16T02:02:42.433Z,8.73
2022-11-16T02:05:11.386Z,8.68
2022-11-16T02:08:17.897Z,8.57
2022-11-16T02:11:04.844Z,8.23
2022-11-16T02:14:02.040Z,9.32
2022-11-16T02:16:46.866Z,9.43
2022-11-16T02:19:51.217Z,8.93
2022-11-16T02:22:39.088Z,8.65
2022-11-16T02:25:15.926Z,8.23
2022-11-16T02:27:53.078Z,8.20
2022-11-16T02:30:21.140Z,7.55
2022-11-16T02:32:57.662Z,7.88
2022-11-16T02:35:40.414Z,7.57
2022-11-16T02:38:13.421Z,7.03
2022-11-16T02:40:45.056Z,7.05
2022-11-16T02:43:16.587Z,6.65
2022-11-16T02:45:48.599Z,6.90
2022-11-16T02:48:21.096Z,6.82
2022-11-16T02:50:52.664Z,7.07
2022-11-16T02:53:24.508Z,6.93
2022-11-16T02:55:51.867Z,7.20
2022-11-16T02:58:23.010Z,7.32
2022-11-16T03:01:04.003Z,7.35
2022-11-16T03:03:45.759Z,6.97
2022-11-16T03:06:24.975Z,7.28
2022-11-16T03:09:10.989Z,7.00
2022-11-16T03:14:49.619Z,7.43
2022-11-16T03:17:27.646Z,7.13
2022-11-16T03:19:58.197Z,7.05
2022-11-16T03:22:55.934Z,6.95
2022-11-16T03:25:25.478Z,7.65
2022-11-16T03:28:03.645Z,7.60
2022-11-16T03:30:35.511Z,7.68
2022-11-16T03:33:22.288Z,7.22
2022-11-16T03:36:20.795Z,7.43
2022-11-16T03:38:50.839Z,7.95
2022-11-16T03:41:20.436Z,7.65
2022-11-16T03:43:48.974Z,7.70
2022-11-16T03:46:17.466Z,7.18
2022-11-16T03:48:44.326Z,8.13
2022-11-16T03:53:38.120Z,7.40
2022-11-16T03:56:05.061Z,8.30
2022-11-16T03:58:32.357Z,7.80
2022-11-16T04:01:00.175Z,7.88
2022-11-16T04:03:27.118Z,8.15
2022-11-16T04:06:12.454Z,7.75
2022-11-16T04:08:57.836Z,8.23
2022-11-16T04:11:43.217Z,8.23
2022-11-16T04:14:56.131Z,8.13
2022-11-16T04:17:43.405Z,7.95
2022-11-16T04:20:31.374Z,7.43
2022-11-16T04:23:29.467Z,7.57
2022-11-16T04:25:56.382Z,7.78
2022-11-16T04:31:12.819Z,7.50
2022-11-16T04:33:58.444Z,7.68
2022-11-16T04:36:57.614Z,8.07
2022-11-16T04:39:24.299Z,7.70
2022-11-16T04:42:09.483Z,7.00
2022-11-16T04:44:55.352Z,7.15
2022-11-16T04:47:22.207Z,6.80
2022-11-16T04:49:48.985Z,6.28
2022-11-16T04:52:15.994Z,6.35
2022-11-16T04:54:42.696Z,6.40
2022-11-16T04:57:09.445Z,6.43
2022-11-16T04:59:36.187Z,6.40
2022-11-16T05:02:08.838Z,5.53
2022-11-16T05:04:37.025Z,5.20
2022-11-16T05:07:04.039Z,5.55
2022-11-16T05:09:30.807Z,6.30
2022-11-16T05:11:57.506Z,5.55
2022-11-16T05:14:24.247Z,5.20
2022-11-16T05:16:50.982Z,5.72
2022-11-16T05:19:36.078Z,5.43
2022-11-16T05:22:02.804Z,5.70
2022-11-16T05:24:35.299Z,5.60
2022-11-16T05:27:07.605Z,5.85
2022-11-16T05:29:34.885Z,6.15
2022-11-16T05:32:02.825Z,5.60
2022-11-16T05:34:29.865Z,5.75
2022-11-16T05:36:57.154Z,5.68
2022-11-16T05:39:24.139Z,6.40
2022-11-16T05:41:51.011Z,6.70
2022-11-16T05:46:45.239Z,7.10
2022-11-16T05:49:13.410Z,7.47
2022-11-16T05:51:41.973Z,7.15
2022-11-16T05:54:11.524Z,6.72
2022-11-16T05:56:38.550Z,6.30
2022-11-16T05:59:05.350Z,5.80
2022-11-16T06:01:32.250Z,5.68
2022-11-16T06:04:02.866Z,5.60
2022-11-16T06:06:29.840Z,5.30
2022-11-16T06:11:23.750Z,4.85
2022-11-16T06:13:51.138Z,4.32
2022-11-16T06:16:17.953Z,4.43
2022-11-16T06:18:46.654Z,5.00
2022-11-16T06:21:15.363Z,4.13
2022-11-16T06:23:42.112Z,4.55
2022-11-16T06:26:09.485Z,4.55
2022-11-16T06:28:37.016Z,4.30
2022-11-16T06:31:04.376Z,3.97
2022-11-16T06:33:33.756Z,3.53
2022-11-16T06:36:00.751Z,3.90
2022-11-16T06:38:27.875Z,4.00
2022-11-16T06:40:57.077Z,3.90
2022-11-16T06:43:24.794Z,3.42
2022-11-16T06:45:53.313Z,3.78
2022-11-16T06:48:20.722Z,3.70
2022-11-16T06:50:49.694Z,3.60
2022-11-16T06:53:16.840Z,3.03
2022-11-16T06:55:43.666Z,3.85
2022-11-16T06:58:10.623Z,4.03
2022-11-16T07:03:04.803Z,3.83
2022-11-16T07:05:32.288Z,3.60
2022-11-16T07:07:59.346Z,3.92
2022-11-16T07:10:26.586Z,3.90
2022-11-16T07:12:53.532Z,3.78
2022-11-16T07:17:47.563Z,3.50
2022-11-16T07:20:14.318Z,3.35
2022-11-16T07:22:41.412Z,3.75
2022-11-16T07:25:08.795Z,3.78
2022-11-16T07:27:35.614Z,3.58
2022-11-16T07:30:02.455Z,3.20
2022-11-16T07:34:59.413Z,3.03
2022-11-16T07:37:26.724Z,2.67
2022-11-16T07:39:53.509Z,3.10
2022-11-16T07:42:20.250Z,4.20
2022-11-16T07:44:47.029Z,3.17
2022-11-16T07:47:13.833Z,2.80
2022-11-16T07:52:10.745Z,3.03
2022-11-16T07:54:37.609Z,3.33
2022-11-16T07:57:04.613Z,3.40
2022-11-16T07:59:31.427Z,3.63
2022-11-16T08:04:26.454Z,3.70
2022-11-16T08:06:53.377Z,3.97
2022-11-16T08:09:20.344Z,3.88
2022-11-16T08:14:15.676Z,4.28
2022-11-16T08:16:42.514Z,3.75
2022-11-16T08:21:37.427Z,4.22
2022-11-16T08:24:04.533Z,4.32
2022-11-16T08:26:31.664Z,4.78
2022-11-16T08:28:58.713Z,4.25
2022-11-16T08:31:28.577Z,4.78
2022-11-16T08:33:56.705Z,5.00
2022-11-16T08:36:23.594Z,5.18
2022-11-16T08:41:19.144Z,5.88
2022-11-16T08:43:47.249Z,5.80
2022-11-16T08:46:15.041Z,6.53
2022-11-16T08:48:42.680Z,6.05
2022-11-16T08:51:19.191Z,6.40
2022-11-16T08:53:48.374Z,6.60
2022-11-16T08:56:17.309Z,6.50
2022-11-16T08:58:46.745Z,6.45
2022-11-16T09:01:19.089Z,6.32
2022-11-16T09:03:46.489Z,6.50
2022-11-16T09:06:14.073Z,6.60
2022-11-16T09:08:44.148Z,6.22
2022-11-16T09:11:16.852Z,5.95
2022-11-16T09:13:45.027Z,6.30
2022-11-16T09:16:11.958Z,5.75
2022-11-16T09:18:38.959Z,6.22
2022-11-16T09:21:05.955Z,6.88
2022-11-16T09:23:32.801Z,6.43
2022-11-16T09:28:31.012Z,6.40
2022-11-16T09:31:04.019Z,7.65
2022-11-16T09:33:32.029Z,7.20
2022-11-16T09:36:07.854Z,6.95
2022-11-16T09:39:10.204Z,7.20
2022-11-16T09:41:44.300Z,6.97
2022-11-16T09:44:59.599Z,7.47
2022-11-16T09:47:49.081Z,6.43
2022-11-16T09:50:27.042Z,6.28
2022-11-16T09:52:57.264Z,6.05
2022-11-16T09:55:33.745Z,6.40
2022-11-16T09:58:03.398Z,5.90
2022-11-16T10:00:31.249Z,6.22
2022-11-16T10:03:01.856Z,6.45
2022-11-16T10:05:43.669Z,5.95
2022-11-16T10:08:29.491Z,6.35
2022-11-16T10:11:23.617Z,6.35
2022-11-16T10:13:50.558Z,6.32
2022-11-16T10:19:06.021Z,6.32
2022-11-16T10:21:47.958Z,6.75
2022-11-16T10:24:29.653Z,6.10
2022-11-16T10:27:05.957Z,6.60
2022-11-16T10:30:14.070Z,6.47
2022-11-16T10:32:55.096Z,6.43
2022-11-16T10:35:32.693Z,6.53
2022-11-16T10:38:02.713Z,6.05
2022-11-16T10:40:40.677Z,6.22
2022-11-16T10:43:18.765Z,6.97
2022-11-16T10:46:02.648Z,6.43
2022-11-16T10:48:42.518Z,6.47
2022-11-16T10:51:10.369Z,5.95
2022-11-16T10:53:39.862Z,6.13
2022-11-16T10:56:30.240Z,6.65
2022-11-16T10:59:02.232Z,6.97
2022-11-16T11:01:30.529Z,6.05
2022-11-16T11:03:57.672Z,6.43
2022-11-16T11:06:26.176Z,6.35
2022-11-16T11:08:53.056Z,6.22
2022-11-16T11:11:40.957Z,6.93
2022-11-16T11:14:14.696Z,6.10
2022-11-16T11:16:41.953Z,6.78
2022-11-16T11:19:28.934Z,7.35
2022-11-16T11:22:00.214Z,6.88
2022-11-16T11:24:45.312Z,6.40
2022-11-16T11:27:13.085Z,6.15
2022-11-16T11:29:42.622Z,5.88
2022-11-16T11:32:23.558Z,7.50
2022-11-16T11:34:53.909Z,7.03
2022-11-16T11:37:34.104Z,6.93
2022-11-16T11:40:10.185Z,6.55
2022-11-16T11:42:41.285Z,5.90
2022-11-16T11:45:15.142Z,6.30
2022-11-16T11:47:58.787Z,5.93
2022-11-16T11:50:35.218Z,7.55
2022-11-16T11:53:32.524Z,7.40
2022-11-16T11:56:00.319Z,6.63
2022-11-16T11:58:31.362Z,7.38
2022-11-16T12:01:06.121Z,7.38
2022-11-16T12:03:44.996Z,6.95
2022-11-16T12:06:42.616Z,7.72
2022-11-16T12:09:37.584Z,7.45
2022-11-16T12:12:27.207Z,6.65
2022-11-16T12:15:08.908Z,7.47
2022-11-16T12:18:00.962Z,6.78
2022-11-16T12:20:45.849Z,6.93
2022-11-16T12:23:21.401Z,6.45
2022-11-16T12:26:11.109Z,6.47
2022-11-16T12:28:47.121Z,5.90
2022-11-16T12:31:43.425Z,6.55
2022-11-16T12:34:34.228Z,6.10
2022-11-16T12:37:19.135Z,5.93
2022-11-16T12:40:17.917Z,5.43
2022-11-16T12:43:19.407Z,5.75
2022-11-16T12:46:04.774Z,5.95
2022-11-16T12:48:57.601Z,5.72
2022-11-16T12:51:41.614Z,5.68
2022-11-16T12:55:04.222Z,6.03
2022-11-16T12:57:56.027Z,6.20
2022-11-16T13:00:22.824Z,6.25
2022-11-16T13:05:32.485Z,6.00
2022-11-16T13:08:08.276Z,5.97
2022-11-16T13:10:42.995Z,5.95
2022-11-16T13:13:41.143Z,5.38
2022-11-16T13:16:09.634Z,5.80
2022-11-16T13:18:41.585Z,6.15
2022-11-16T13:21:17.847Z,6.18
2022-11-16T13:23:50.412Z,6.88
2022-11-16T13:26:39.295Z,7.55
2022-11-16T13:29:26.817Z,7.95
2022-11-16T13:32:02.407Z,8.50
2022-11-16T13:34:34.484Z,9.32
2022-11-16T13:37:01.313Z,9.15
2022-11-16T13:40:04.441Z,8.95
2022-11-16T13:42:38.242Z,9.02
2022-11-16T13:45:13.662Z,9.13
2022-11-16T13:47:40.404Z,8.75
2022-11-16T13:50:18.821Z,8.90
2022-11-16T13:53:46.167Z,9.45
2022-11-16T13:55:41.268Z,8.57
2022-11-16T13:58:12.987Z,7.75
2022-11-16T14:00:40.799Z,7.18
2022-11-16T14:03:16.656Z,6.78
2022-11-16T14:05:48.128Z,6.70
2022-11-16T14:08:37.697Z,8.45
2022-11-16T14:11:25.159Z,6.28
2022-11-16T14:13:52.027Z,6.85
2022-11-16T14:18:49.640Z,6.60
2022-11-16T14:21:43.836Z,6.82
2022-11-16T14:24:34.164Z,7.30
2022-11-16T14:27:34.943Z,7.18
2022-11-16T14:30:25.883Z,6.90
2022-11-16T14:32:55.922Z,6.72
2022-11-16T14:35:38.612Z,8.05
2022-11-16T14:38:17.447Z,7.18
2022-11-16T14:40:47.256Z,8.00
2022-11-16T14:43:45.700Z,8.02
2022-11-16T14:46:35.578Z,7.55
2022-11-16T14:49:03.043Z,7.93
2022-11-16T14:51:33.821Z,7.93
2022-11-16T14:54:13.085Z,8.43
2022-11-16T14:56:55.945Z,8.20
2022-11-16T14:59:22.770Z,7.88
2022-11-16T15:04:18.281Z,8.25
2022-11-16T15:07:03.267Z,8.82
2022-11-16T15:09:36.055Z,8.07
2022-11-16T15:12:25.226Z,8.63
2022-11-16T15:14:54.730Z,8.68
2022-11-16T15:17:27.261Z,9.02
2022-11-16T15:20:13.243Z,8.32
2022-11-16T15:22:42.424Z,8.25
2022-11-16T15:25:30.526Z,9.15
2022-11-16T15:28:00.348Z,8.50
2022-11-16T15:30:36.946Z,8.82
2022-11-16T15:33:09.800Z,8.52
2022-11-16T15:35:37.923Z,8.73
2022-11-16T15:38:05.901Z,9.20
2022-11-16T15:40:34.051Z,8.82
2022-11-16T15:43:03.582Z,8.88
2022-11-16T15:45:31.770Z,8.90
2022-11-16T15:48:01.699Z,8.50
2022-11-16T15:50:28.703Z,8.88
2022-11-16T15:52:56.641Z,9.35
2022-11-16T15:55:34.252Z,9.50
2022-11-16T15:58:02.397Z,9.13
2022-11-16T16:00:30.464Z,9.55
2022-11-16T16:03:14.895Z,9.25
2022-11-16T16:05:41.811Z,9.15
2022-11-16T16:11:23.993Z,8.85
2022-11-16T16:14:02.066Z,9.38
2022-11-16T16:16:38.344Z,10.02
2022-11-16T16:19:24.286Z,11.00
2022-11-16T16:24:39.306Z,9.82
2022-11-16T16:27:11.928Z,10.88
2022-11-16T16:29:38.853Z,9.82
2022-11-16T16:34:35.397Z,10.82
2022-11-16T16:37:04.454Z,10.77
2022-11-16T16:39:34.446Z,10.35
2022-11-16T16:42:01.210Z,10.65
2022-11-16T16:44:27.930Z,11.35
2022-11-16T16:46:54.614Z,11.00
2022-11-16T16:49:21.359Z,12.00
2022-11-16T16:51:48.190Z,12.10
2022-11-16T16:56:42.283Z,11.43
2022-11-16T16:59:10.395Z,11.85
2022-11-16T17:01:37.125Z,12.52
2022-11-16T17:04:03.981Z,12.95
2022-11-16T17:08:57.986Z,12.27
2022-11-16T17:11:25.002Z,12.45
2022-11-16T17:13:51.795Z,11.73
2022-11-16T17:18:45.181Z,12.00
2022-11-16T17:21:11.989Z,11.80
2022-11-16T17:26:07.109Z,11.85
2022-11-16T17:28:34.353Z,12.40
2022-11-16T17:31:06.075Z,12.65
2022-11-16T17:33:34.736Z,13.02
2022-11-16T17:36:03.773Z,11.68
2022-11-16T17:38:31.754Z,12.30
2022-11-16T17:41:13.083Z,12.35
2022-11-16T17:43:41.309Z,12.38
2022-11-16T17:46:13.180Z,12.73
2022-11-16T17:48:43.346Z,12.63
2022-11-16T17:51:12.319Z,12.52
2022-11-16T17:53:40.009Z,12.88
2022-11-16T17:56:07.684Z,13.07
2022-11-16T17:58:34.776Z,13.07
2022-11-16T18:01:01.637Z,13.50
2022-11-16T18:03:28.737Z,13.18
2022-11-16T18:06:04.895Z,13.23
2022-11-16T18:08:35.727Z,14.02
2022-11-16T18:11:13.781Z,13.60
2022-11-16T18:13:40.964Z,12.98
2022-11-16T18:16:13.697Z,14.23
2022-11-16T18:18:41.110Z,13.32
2022-11-16T18:21:08.891Z,13.48
2022-11-16T18:23:37.430Z,13.80
2022-11-16T18:26:11.415Z,12.98
2022-11-16T18:28:38.202Z,13.00
2022-11-16T18:33:37.627Z,13.02
2022-11-16T18:36:06.762Z,13.35
2022-11-16T18:38:33.908Z,13.40
2022-11-16T18:41:05.296Z,13.85
2022-11-16T18:43:33.972Z,13.45
2022-11-16T18:46:01.106Z,14.27
2022-11-16T18:48:27.887Z,14.35
2022-11-16T18:50:59.047Z,14.55
2022-11-16T18:53:26.595Z,14.18
2022-11-16T18:55:57.860Z,13.43
2022-11-16T18:58:49.332Z,14.52
2022-11-16T19:01:14.213Z,13.25
2022-11-16T19:03:41.134Z,14.13
2022-11-16T19:08:37.486Z,14.85
2022-11-16T19:11:23.332Z,14.15
2022-11-16T19:13:54.006Z,13.38
2022-11-16T19:16:21.060Z,14.05
2022-11-16T19:18:47.803Z,13.75
2022-11-16T19:21:18.288Z,14.45
2022-11-16T19:23:47.720Z,14.75
2022-11-16T19:26:15.699Z,14.88
2022-11-16T19:28:44.266Z,14.35
2022-11-16T19:31:16.941Z,14.10
2022-11-16T19:33:45.148Z,13.93
2022-11-16T19:36:17.255Z,14.35
2022-11-16T19:38:45.945Z,14.07
2022-11-16T19:41:14.486Z,14.32
2022-11-16T19:43:41.834Z,15.02
2022-11-16T19:46:11.241Z,15.13
2022-11-16T19:48:38.672Z,14.40
2022-11-16T19:51:14.566Z,15.18
2022-11-16T19:53:41.371Z,15.40
2022-11-16T19:56:11.232Z,15.13
2022-11-16T19:58:38.542Z,14.90
2022-11-16T20:01:10.435Z,14.38
2022-11-16T20:03:41.778Z,15.45
2022-11-16T20:06:16.260Z,14.73
2022-11-16T20:08:46.831Z,15.45
2022-11-16T20:11:21.351Z,15.55
2022-11-16T20:13:49.134Z,14.73
2022-11-16T20:16:17.468Z,15.85
2022-11-16T20:18:45.087Z,15.65
2022-11-16T20:21:17.149Z,16.15
2022-11-16T20:23:45.497Z,15.82
2022-11-16T20:26:14.279Z,16.17
2022-11-16T20:28:42.708Z,16.17
2022-11-16T20:31:13.342Z,16.23
2022-11-16T20:33:40.639Z,15.70
2022-11-16T20:36:10.062Z,15.27
2022-11-16T20:38:38.825Z,15.82
2022-11-16T20:41:09.405Z,15.55
2022-11-16T20:43:36.873Z,14.55
2022-11-16T20:46:03.830Z,16.02
2022-11-16T20:48:30.615Z,14.98
2022-11-16T20:50:57.387Z,16.23
2022-11-16T20:53:24.180Z,15.98
2022-11-16T20:58:22.558Z,15.50
2022-11-16T21:00:50.209Z,15.77
2022-11-16T21:03:17.428Z,16.08
2022-11-16T21:05:46.244Z,15.80
2022-11-16T21:08:13.305Z,16.40
2022-11-16T21:10:40.192Z,15.77
2022-11-16T21:13:44.640Z,16.33
2022-11-16T21:16:13.698Z,16.75
2022-11-16T21:18:41.052Z,16.85
2022-11-16T21:21:09.532Z,15.75
2022-11-16T21:23:37.283Z,16.98
2022-11-16T21:26:06.784Z,17.38
2022-11-16T21:28:33.970Z,17.17
2022-11-16T21:31:06.727Z,17.70
2022-11-16T21:33:34.056Z,16.70
2022-11-16T21:36:05.972Z,16.50
2022-11-16T21:38:33.366Z,16.30
2022-11-16T21:41:01.357Z,16.17
2022-11-16T21:43:28.433Z,17.08
2022-11-16T21:46:02.479Z,16.67
2022-11-16T21:48:32.923Z,16.35
2022-11-16T21:51:05.028Z,15.82
2022-11-16T21:53:32.613Z,17.15
2022-11-16T21:55:59.563Z,16.13
2022-11-16T21:58:26.616Z,16.20
2022-11-16T22:00:58.003Z,15.02
2022-11-16T22:03:26.121Z,15.27
2022-11-16T22:06:12.984Z,17.10
2022-11-16T22:08:40.535Z,14.50
2022-11-16T22:11:08.339Z,15.55
2022-11-16T22:13:35.835Z,15.75
2022-11-16T22:16:11.839Z,14.52
2022-11-16T22:18:39.407Z,15.75
2022-11-16T22:21:06.242Z,15.90
2022-11-16T22:26:02.040Z,16.50
2022-11-16T22:28:28.878Z,14.38
2022-11-16T22:31:13.239Z,13.75
2022-11-16T22:33:40.399Z,13.40
2022-11-16T22:36:09.278Z,11.95
2022-11-16T22:38:36.666Z,11.50
2022-11-16T22:41:04.301Z,11.52
2022-11-16T22:43:31.553Z,11.05
2022-11-16T22:46:01.204Z,11.27
2022-11-16T22:48:39.476Z,11.40
2022-11-16T22:51:13.365Z,11.18
2022-11-16T22:53:40.265Z,11.60
2022-11-16T22:58:35.674Z,10.43
2022-11-16T23:01:02.820Z,10.65
2022-11-16T23:03:29.791Z,10.90
2022-11-16T23:05:56.599Z,11.25
2022-11-16T23:08:24.901Z,11.75
2022-11-16T23:11:24.882Z,11.23
2022-11-16T23:14:11.555Z,10.20
2022-11-16T23:16:39.512Z,11.48
2022-11-16T23:19:27.826Z,11.18
2022-11-16T23:22:13.968Z,10.40
2022-11-16T23:24:59.431Z,11.77
2022-11-16T23:27:39.526Z,11.88
2022-11-16T23:30:12.528Z,11.88
2022-11-16T23:32:40.335Z,11.80
2022-11-16T23:35:07.487Z,11.52
2022-11-16T23:37:34.582Z,11.18
2022-11-16T23:40:01.347Z,11.00
2022-11-16T23:42:46.761Z,11.05
2022-11-16T23:45:13.571Z,9.65
2022-11-16T23:47:40.254Z,9.82
2022-11-16T23:50:07.267Z,10.05
2022-11-16T23:52:33.954Z,9.88
2022-11-16T23:55:00.653Z,10.82
2022-11-16T23:57:27.388Z,9.90
2022-11-16T23:59:54.092Z,9.90
